Mijn Webcam Meer informatie Mijn Webcam


webcam richting noord-oost Meer informatie webcam facing north-east


Regen radar Meer informatie rain snow radar


Bezoek onze andere website:

Template documentation
and downloads

And another site



METAR rapporten vliegvelden

   
EHGG - Groningen/Eelde
Gewijzigd: 18-01-2019 17:25
Grotendeels bewolkt  
Grotendeels bewolkt  
   Wind: ZW 3.1 m/s
Wind: ZW 3.1 m/s
Temperatuur: 3°C
Voelt als: 0°C
Dauwpunt: 0°C
Vochtigheid: 81%
Barometer: 1018 hPa
Bewolking: Grotendeels bewolkt
Zicht: meer dan 10 km
Bewolking: Grotendeels bewolkt 1402.1 m
EHGG 181625Z AUTO 22006KT 9999 BKN046 03/00 Q1018 R05/290095 NOSIG
EHMA - Schiermonnikoog
Gewijzigd: 18-01-2019 17:25
Licht bewolkt  
Licht bewolkt  
   Wind: varieert 4.1 m/s
Wind: varieert 4.1 m/s
Temperatuur: 5°C
Voelt als: 2°C
Dauwpunt: 1°C
Vochtigheid: 76%
Barometer: 1018 hPa
Bewolking: Licht bewolkt
Bewolking: Licht bewolkt 1341.1 m
EHMA 181625Z AUTO VRB08KT //// // FEW044 05/01 Q1018 RE// W///H///
EHMG - Terschelling
Gewijzigd: 18-01-2019 17:25
Licht bewolkt  
Licht bewolkt  
   Wind: Westen 1.5 m/s
Wind: Westen 1.5 m/s
Temperatuur: 6°C
Voelt als: 5°C
Dauwpunt: 2°C
Vochtigheid: 76%
Barometer: 1018 hPa
Bewolking: Licht bewolkt
Zicht: meer dan 10 km
Bewolking: Licht bewolkt 701 m
EHMG 181625Z AUTO 26003KT 9999 FEW023 06/02 Q1018 W///H///
EHVL - Vlieland
Gewijzigd: 18-01-2019 17:25
Bewolking  
Bewolking  
   Wind: ZZW 4.6 m/s
Wind: ZZW 4.6 m/s
Temperatuur: 4°C
Voelt als: 0°C
Dauwpunt: 1°C
Vochtigheid: 81%
Barometer: 1018 hPa
Bewolking: Bewolking
Zicht: meer dan 10 km
Bewolking: Gedeeltelijk bewolkt 1463 m,
Grotendeels bewolkt 4267.2 m,
Bewolking 5791.2 m
EHVL 181625Z AUTO 20009KT 9999 SCT048 BKN140 OVC190 04/01 Q1018 BLU
ETWM - Meppen, Germany
Gewijzigd: 18-01-2019 17:20
  
  
   Wind: ZW 1.5 m/s
Wind: ZW 1.5 m/s
Temperatuur: 1°C
Voelt als: -1°C
Dauwpunt: -1°C
Vochtigheid: 87%
Barometer: 1019 hPa
Zicht: meer dan 10 km
ETWM 181620Z AUTO 23003KT 9999 // ////// 01/M01 Q1019 ///
 

Script ontwikkeld door  Saratoga-weather.org Aangepast voor de template door  Weerstation Leuven

U vindt ons ook hier:

Het Weer Aktueel

UK Metoffice

European Weather Network

WeatherCloud

Weather Underground

Benelux Weer Netwerk

AWEKAS

WeatherlinkIP

HAMweather, WeatherForYou, PWS Weather

 

Apparatuur in gebruik:

Weerstation
Davis VP2 Plus

Weerprogramma
Cumulus

Weercomputer
ASUS Eee Box B202

Webleverancier
Antagonist

Davis VP2 Plus

Cumulus

ASUS Eee Box B202

Antagonist